sensor_id;sensor_type;location;lat;lon;timestamp;P1;durP1;ratioP1;P2;durP2;ratioP2
78891;SDS011;68368;51.728;5.248;2024-03-22T00:01:44;42.00;;;21.30;;
78891;SDS011;68368;51.728;5.248;2024-03-22T00:03:49;46.00;;;22.00;;
78891;SDS011;68368;51.728;5.248;2024-03-22T00:05:53;38.40;;;20.70;;
78891;SDS011;68368;51.728;5.248;2024-03-22T00:07:58;42.50;;;21.00;;
78891;SDS011;68368;51.728;5.248;2024-03-22T00:10:02;44.60;;;22.40;;
78891;SDS011;68368;51.728;5.248;2024-03-22T00:12:08;42.20;;;22.30;;
78891;SDS011;68368;51.728;5.248;2024-03-22T00:14:12;43.40;;;20.70;;
78891;SDS011;68368;51.728;5.248;2024-03-22T00:16:17;47.20;;;21.90;;
78891;SDS011;68368;51.728;5.248;2024-03-22T00:18:21;47.00;;;22.30;;
78891;SDS011;68368;51.728;5.248;2024-03-22T00:20:26;44.30;;;22.40;;
78891;SDS011;68368;51.728;5.248;2024-03-22T00:22:31;39.70;;;20.50;;
78891;SDS011;68368;51.728;5.248;2024-03-22T00:24:36;45.10;;;21.90;;
78891;SDS011;68368;51.728;5.248;2024-03-22T00:26:40;43.90;;;21.80;;
78891;SDS011;68368;51.728;5.248;2024-03-22T00:28:44;43.30;;;22.10;;
78891;SDS011;68368;51.728;5.248;2024-03-22T00:30:49;43.20;;;21.80;;
78891;SDS011;68368;51.728;5.248;2024-03-22T00:32:53;44.10;;;21.00;;
78891;SDS011;68368;51.728;5.248;2024-03-22T00:34:58;40.90;;;21.20;;
78891;SDS011;68368;51.728;5.248;2024-03-22T00:37:02;41.10;;;22.20;;
78891;SDS011;68368;51.728;5.248;2024-03-22T00:39:07;39.60;;;21.50;;
78891;SDS011;68368;51.728;5.248;2024-03-22T00:41:11;39.00;;;20.30;;
78891;SDS011;68368;51.728;5.248;2024-03-22T00:43:16;40.20;;;20.40;;
78891;SDS011;68368;51.728;5.248;2024-03-22T00:45:21;38.70;;;20.30;;
78891;SDS011;68368;51.728;5.248;2024-03-22T00:47:25;40.80;;;21.00;;
78891;SDS011;68368;51.728;5.248;2024-03-22T00:49:29;43.60;;;23.00;;
78891;SDS011;68368;51.728;5.248;2024-03-22T00:51:34;39.30;;;20.60;;
78891;SDS011;68368;51.728;5.248;2024-03-22T00:53:38;45.40;;;21.90;;
78891;SDS011;68368;51.728;5.248;2024-03-22T00:55:43;40.40;;;20.10;;
78891;SDS011;68368;51.728;5.248;2024-03-22T00:57:47;40.60;;;20.70;;
78891;SDS011;68368;51.728;5.248;2024-03-22T00:59:52;41.70;;;22.10;;
78891;SDS011;68368;51.728;5.248;2024-03-22T01:01:56;40.30;;;21.20;;
78891;SDS011;68368;51.728;5.248;2024-03-22T01:04:01;38.20;;;19.60;;
78891;SDS011;68368;51.728;5.248;2024-03-22T01:06:06;42.00;;;21.40;;
78891;SDS011;68368;51.728;5.248;2024-03-22T01:08:10;45.00;;;23.30;;
78891;SDS011;68368;51.728;5.248;2024-03-22T01:10:15;35.60;;;20.20;;
78891;SDS011;68368;51.728;5.248;2024-03-22T01:12:19;36.70;;;19.50;;
78891;SDS011;68368;51.728;5.248;2024-03-22T01:14:24;38.70;;;19.90;;
78891;SDS011;68368;51.728;5.248;2024-03-22T01:16:28;43.50;;;23.00;;
78891;SDS011;68368;51.728;5.248;2024-03-22T01:18:32;40.40;;;21.00;;
78891;SDS011;68368;51.728;5.248;2024-03-22T01:20:37;39.60;;;21.70;;
78891;SDS011;68368;51.728;5.248;2024-03-22T01:22:41;39.70;;;20.30;;
78891;SDS011;68368;51.728;5.248;2024-03-22T01:24:46;39.30;;;20.70;;
78891;SDS011;68368;51.728;5.248;2024-03-22T01:26:50;41.10;;;21.70;;
78891;SDS011;68368;51.728;5.248;2024-03-22T01:28:55;41.30;;;20.60;;
78891;SDS011;68368;51.728;5.248;2024-03-22T01:30:59;37.40;;;20.70;;
78891;SDS011;68368;51.728;5.248;2024-03-22T01:33:04;45.60;;;20.70;;
78891;SDS011;68368;51.728;5.248;2024-03-22T01:35:09;38.60;;;21.10;;
78891;SDS011;68368;51.728;5.248;2024-03-22T01:37:14;46.50;;;23.00;;
78891;SDS011;68368;51.728;5.248;2024-03-22T01:39:18;36.10;;;19.30;;
78891;SDS011;68368;51.728;5.248;2024-03-22T01:41:23;37.10;;;20.30;;
78891;SDS011;68368;51.728;5.248;2024-03-22T01:43:27;38.60;;;20.80;;
78891;SDS011;68368;51.728;5.248;2024-03-22T01:45:33;41.40;;;21.60;;
78891;SDS011;68368;51.728;5.248;2024-03-22T01:47:39;38.60;;;21.40;;
78891;SDS011;68368;51.728;5.248;2024-03-22T01:49:44;37.50;;;20.70;;
78891;SDS011;68368;51.728;5.248;2024-03-22T01:51:49;40.20;;;21.40;;
78891;SDS011;68368;51.728;5.248;2024-03-22T01:53:53;39.40;;;19.60;;
78891;SDS011;68368;51.728;5.248;2024-03-22T01:55:58;41.70;;;21.20;;
78891;SDS011;68368;51.728;5.248;2024-03-22T01:58:03;38.90;;;21.50;;
78891;SDS011;68368;51.728;5.248;2024-03-22T02:00:11;39.00;;;20.50;;
78891;SDS011;68368;51.728;5.248;2024-03-22T02:02:16;37.90;;;19.60;;
78891;SDS011;68368;51.728;5.248;2024-03-22T02:04:20;39.10;;;21.20;;
78891;SDS011;68368;51.728;5.248;2024-03-22T02:06:25;42.50;;;22.30;;
78891;SDS011;68368;51.728;5.248;2024-03-22T02:08:29;39.90;;;21.00;;
78891;SDS011;68368;51.728;5.248;2024-03-22T02:10:34;39.00;;;20.40;;
78891;SDS011;68368;51.728;5.248;2024-03-22T02:12:39;38.90;;;22.60;;
78891;SDS011;68368;51.728;5.248;2024-03-22T02:14:43;42.60;;;22.10;;
78891;SDS011;68368;51.728;5.248;2024-03-22T02:16:48;39.40;;;21.30;;
78891;SDS011;68368;51.728;5.248;2024-03-22T02:18:52;38.40;;;20.60;;
78891;SDS011;68368;51.728;5.248;2024-03-22T02:20:57;39.00;;;21.00;;
78891;SDS011;68368;51.728;5.248;2024-03-22T02:23:02;38.60;;;20.10;;
78891;SDS011;68368;51.728;5.248;2024-03-22T02:25:07;39.80;;;21.60;;
78891;SDS011;68368;51.728;5.248;2024-03-22T02:27:11;40.10;;;21.10;;
78891;SDS011;68368;51.728;5.248;2024-03-22T02:29:16;39.70;;;20.60;;
78891;SDS011;68368;51.728;5.248;2024-03-22T02:31:21;39.00;;;20.10;;
78891;SDS011;68368;51.728;5.248;2024-03-22T02:33:25;35.70;;;20.00;;
78891;SDS011;68368;51.728;5.248;2024-03-22T02:35:30;37.90;;;20.80;;
78891;SDS011;68368;51.728;5.248;2024-03-22T02:37:34;33.10;;;18.40;;
78891;SDS011;68368;51.728;5.248;2024-03-22T02:39:39;35.50;;;20.10;;
78891;SDS011;68368;51.728;5.248;2024-03-22T02:41:43;35.30;;;19.50;;
78891;SDS011;68368;51.728;5.248;2024-03-22T02:43:48;38.00;;;19.00;;
78891;SDS011;68368;51.728;5.248;2024-03-22T02:45:52;38.00;;;20.70;;
78891;SDS011;68368;51.728;5.248;2024-03-22T02:47:56;35.60;;;19.00;;
78891;SDS011;68368;51.728;5.248;2024-03-22T02:50:01;34.10;;;19.00;;
78891;SDS011;68368;51.728;5.248;2024-03-22T02:52:07;35.90;;;19.50;;
78891;SDS011;68368;51.728;5.248;2024-03-22T02:54:12;36.20;;;19.50;;
78891;SDS011;68368;51.728;5.248;2024-03-22T02:56:16;35.30;;;18.90;;
78891;SDS011;68368;51.728;5.248;2024-03-22T02:58:21;31.80;;;18.10;;
78891;SDS011;68368;51.728;5.248;2024-03-22T03:00:26;33.30;;;18.70;;
78891;SDS011;68368;51.728;5.248;2024-03-22T03:02:30;31.60;;;17.80;;
78891;SDS011;68368;51.728;5.248;2024-03-22T03:04:35;32.10;;;17.90;;
78891;SDS011;68368;51.728;5.248;2024-03-22T03:06:39;30.60;;;17.80;;
78891;SDS011;68368;51.728;5.248;2024-03-22T03:08:43;30.50;;;16.90;;
78891;SDS011;68368;51.728;5.248;2024-03-22T03:10:48;31.10;;;15.70;;
78891;SDS011;68368;51.728;5.248;2024-03-22T03:12:53;28.70;;;15.40;;
78891;SDS011;68368;51.728;5.248;2024-03-22T03:14:58;28.80;;;15.30;;
78891;SDS011;68368;51.728;5.248;2024-03-22T03:17:03;28.10;;;15.30;;
78891;SDS011;68368;51.728;5.248;2024-03-22T03:19:07;31.10;;;16.80;;
78891;SDS011;68368;51.728;5.248;2024-03-22T03:21:12;28.40;;;15.20;;
78891;SDS011;68368;51.728;5.248;2024-03-22T03:23:16;26.60;;;14.60;;
78891;SDS011;68368;51.728;5.248;2024-03-22T03:25:20;29.50;;;15.40;;
78891;SDS011;68368;51.728;5.248;2024-03-22T03:27:25;26.50;;;15.60;;
78891;SDS011;68368;51.728;5.248;2024-03-22T03:29:29;24.60;;;14.60;;
78891;SDS011;68368;51.728;5.248;2024-03-22T03:31:34;27.40;;;15.30;;
78891;SDS011;68368;51.728;5.248;2024-03-22T03:33:38;28.40;;;15.50;;
78891;SDS011;68368;51.728;5.248;2024-03-22T03:35:46;27.00;;;15.90;;
78891;SDS011;68368;51.728;5.248;2024-03-22T03:37:50;26.30;;;14.80;;
78891;SDS011;68368;51.728;5.248;2024-03-22T03:39:55;29.30;;;15.10;;
78891;SDS011;68368;51.728;5.248;2024-03-22T03:41:59;28.70;;;15.90;;
78891;SDS011;68368;51.728;5.248;2024-03-22T03:44:04;27.40;;;15.60;;
78891;SDS011;68368;51.728;5.248;2024-03-22T03:46:08;30.90;;;15.90;;
78891;SDS011;68368;51.728;5.248;2024-03-22T03:48:13;29.70;;;16.20;;
78891;SDS011;68368;51.728;5.248;2024-03-22T03:50:17;25.30;;;14.60;;
78891;SDS011;68368;51.728;5.248;2024-03-22T03:52:22;26.40;;;14.70;;
78891;SDS011;68368;51.728;5.248;2024-03-22T03:54:26;28.30;;;16.00;;
78891;SDS011;68368;51.728;5.248;2024-03-22T03:56:30;27.30;;;15.10;;
78891;SDS011;68368;51.728;5.248;2024-03-22T03:58:35;28.40;;;14.70;;
78891;SDS011;68368;51.728;5.248;2024-03-22T04:00:40;25.70;;;15.30;;
78891;SDS011;68368;51.728;5.248;2024-03-22T04:02:44;25.10;;;13.70;;
78891;SDS011;68368;51.728;5.248;2024-03-22T04:04:51;22.80;;;13.30;;
78891;SDS011;68368;51.728;5.248;2024-03-22T04:06:56;28.00;;;15.00;;
78891;SDS011;68368;51.728;5.248;2024-03-22T04:09:00;24.50;;;13.60;;
78891;SDS011;68368;51.728;5.248;2024-03-22T04:11:05;27.10;;;14.40;;
78891;SDS011;68368;51.728;5.248;2024-03-22T04:13:09;24.20;;;13.50;;
78891;SDS011;68368;51.728;5.248;2024-03-22T04:15:14;24.40;;;12.70;;
78891;SDS011;68368;51.728;5.248;2024-03-22T04:17:18;27.00;;;13.80;;
78891;SDS011;68368;51.728;5.248;2024-03-22T04:19:23;26.60;;;13.40;;
78891;SDS011;68368;51.728;5.248;2024-03-22T04:21:28;23.40;;;13.00;;
78891;SDS011;68368;51.728;5.248;2024-03-22T04:23:32;24.30;;;12.80;;
78891;SDS011;68368;51.728;5.248;2024-03-22T04:25:36;24.30;;;13.10;;
78891;SDS011;68368;51.728;5.248;2024-03-22T04:27:41;21.00;;;11.40;;
78891;SDS011;68368;51.728;5.248;2024-03-22T04:29:48;23.70;;;13.20;;
78891;SDS011;68368;51.728;5.248;2024-03-22T04:31:52;25.30;;;13.60;;
78891;SDS011;68368;51.728;5.248;2024-03-22T04:33:57;24.10;;;12.80;;
78891;SDS011;68368;51.728;5.248;2024-03-22T04:36:02;22.90;;;12.70;;
78891;SDS011;68368;51.728;5.248;2024-03-22T04:38:07;25.00;;;13.40;;
78891;SDS011;68368;51.728;5.248;2024-03-22T04:40:13;25.30;;;12.90;;
78891;SDS011;68368;51.728;5.248;2024-03-22T04:42:17;22.80;;;13.10;;
78891;SDS011;68368;51.728;5.248;2024-03-22T04:44:22;23.40;;;12.60;;
78891;SDS011;68368;51.728;5.248;2024-03-22T04:46:27;25.40;;;12.90;;
78891;SDS011;68368;51.728;5.248;2024-03-22T04:48:31;24.20;;;13.10;;
78891;SDS011;68368;51.728;5.248;2024-03-22T04:50:35;26.20;;;13.90;;
78891;SDS011;68368;51.728;5.248;2024-03-22T04:52:40;24.00;;;14.40;;
78891;SDS011;68368;51.728;5.248;2024-03-22T04:54:44;26.40;;;14.10;;
78891;SDS011;68368;51.728;5.248;2024-03-22T04:56:49;21.40;;;12.60;;
78891;SDS011;68368;51.728;5.248;2024-03-22T04:58:54;24.20;;;13.10;;
78891;SDS011;68368;51.728;5.248;2024-03-22T05:00:59;27.50;;;13.40;;
78891;SDS011;68368;51.728;5.248;2024-03-22T05:03:04;22.30;;;12.80;;
78891;SDS011;68368;51.728;5.248;2024-03-22T05:05:08;24.90;;;13.90;;
78891;SDS011;68368;51.728;5.248;2024-03-22T05:07:13;24.10;;;11.90;;
78891;SDS011;68368;51.728;5.248;2024-03-22T05:09:18;21.50;;;12.60;;
78891;SDS011;68368;51.728;5.248;2024-03-22T05:11:22;23.50;;;13.10;;
78891;SDS011;68368;51.728;5.248;2024-03-22T05:13:27;22.30;;;12.40;;
78891;SDS011;68368;51.728;5.248;2024-03-22T05:15:31;26.00;;;13.90;;
78891;SDS011;68368;51.728;5.248;2024-03-22T05:17:35;24.90;;;13.70;;
78891;SDS011;68368;51.728;5.248;2024-03-22T05:19:40;23.90;;;12.90;;
78891;SDS011;68368;51.728;5.248;2024-03-22T05:21:44;24.40;;;13.40;;
78891;SDS011;68368;51.728;5.248;2024-03-22T05:23:49;24.60;;;13.80;;
78891;SDS011;68368;51.728;5.248;2024-03-22T05:25:53;20.90;;;11.40;;
78891;SDS011;68368;51.728;5.248;2024-03-22T05:27:58;23.70;;;13.60;;
78891;SDS011;68368;51.728;5.248;2024-03-22T05:30:03;25.30;;;13.60;;
78891;SDS011;68368;51.728;5.248;2024-03-22T05:32:08;27.30;;;14.00;;
78891;SDS011;68368;51.728;5.248;2024-03-22T05:34:13;23.60;;;13.10;;
78891;SDS011;68368;51.728;5.248;2024-03-22T05:36:17;23.50;;;13.30;;
78891;SDS011;68368;51.728;5.248;2024-03-22T05:38:22;25.50;;;13.50;;
78891;SDS011;68368;51.728;5.248;2024-03-22T05:40:26;25.70;;;12.40;;
78891;SDS011;68368;51.728;5.248;2024-03-22T05:42:31;27.80;;;13.80;;
78891;SDS011;68368;51.728;5.248;2024-03-22T05:44:35;29.00;;;14.70;;
78891;SDS011;68368;51.728;5.248;2024-03-22T05:46:39;29.20;;;15.40;;
78891;SDS011;68368;51.728;5.248;2024-03-22T05:48:44;29.70;;;14.90;;
78891;SDS011;68368;51.728;5.248;2024-03-22T05:50:48;25.90;;;14.70;;
78891;SDS011;68368;51.728;5.248;2024-03-22T05:52:53;27.30;;;15.80;;
78891;SDS011;68368;51.728;5.248;2024-03-22T05:54:57;27.00;;;14.80;;
78891;SDS011;68368;51.728;5.248;2024-03-22T05:57:01;26.70;;;15.00;;
78891;SDS011;68368;51.728;5.248;2024-03-22T05:59:06;28.90;;;16.30;;
78891;SDS011;68368;51.728;5.248;2024-03-22T06:01:10;25.90;;;14.30;;
78891;SDS011;68368;51.728;5.248;2024-03-22T06:03:15;25.80;;;13.80;;
78891;SDS011;68368;51.728;5.248;2024-03-22T06:05:19;27.10;;;14.40;;
78891;SDS011;68368;51.728;5.248;2024-03-22T06:07:24;23.90;;;13.30;;
78891;SDS011;68368;51.728;5.248;2024-03-22T06:09:28;25.80;;;14.30;;
78891;SDS011;68368;51.728;5.248;2024-03-22T06:11:33;28.50;;;15.30;;
78891;SDS011;68368;51.728;5.248;2024-03-22T06:13:37;25.70;;;13.60;;
78891;SDS011;68368;51.728;5.248;2024-03-22T06:15:44;24.30;;;13.50;;
78891;SDS011;68368;51.728;5.248;2024-03-22T06:17:52;26.20;;;14.70;;
78891;SDS011;68368;51.728;5.248;2024-03-22T06:19:57;25.80;;;14.30;;
78891;SDS011;68368;51.728;5.248;2024-03-22T06:22:01;25.60;;;13.20;;
78891;SDS011;68368;51.728;5.248;2024-03-22T06:24:07;26.80;;;14.40;;
78891;SDS011;68368;51.728;5.248;2024-03-22T06:26:11;24.50;;;13.60;;
78891;SDS011;68368;51.728;5.248;2024-03-22T06:28:16;28.10;;;14.00;;
78891;SDS011;68368;51.728;5.248;2024-03-22T06:30:20;23.30;;;12.90;;
78891;SDS011;68368;51.728;5.248;2024-03-22T06:32:24;25.90;;;14.00;;
78891;SDS011;68368;51.728;5.248;2024-03-22T06:34:29;21.30;;;12.90;;
78891;SDS011;68368;51.728;5.248;2024-03-22T06:36:34;22.80;;;12.40;;
78891;SDS011;68368;51.728;5.248;2024-03-22T06:38:38;24.10;;;13.00;;
78891;SDS011;68368;51.728;5.248;2024-03-22T06:40:42;21.60;;;12.40;;
78891;SDS011;68368;51.728;5.248;2024-03-22T06:42:47;24.20;;;14.20;;
78891;SDS011;68368;51.728;5.248;2024-03-22T06:44:52;22.40;;;14.00;;
78891;SDS011;68368;51.728;5.248;2024-03-22T06:46:56;23.30;;;13.50;;
78891;SDS011;68368;51.728;5.248;2024-03-22T06:49:00;25.50;;;13.80;;
78891;SDS011;68368;51.728;5.248;2024-03-22T06:51:05;23.10;;;13.40;;
78891;SDS011;68368;51.728;5.248;2024-03-22T06:53:09;20.20;;;12.40;;
78891;SDS011;68368;51.728;5.248;2024-03-22T06:55:14;22.00;;;12.90;;
78891;SDS011;68368;51.728;5.248;2024-03-22T06:57:19;23.70;;;13.50;;
78891;SDS011;68368;51.728;5.248;2024-03-22T06:59:23;22.30;;;13.40;;
78891;SDS011;68368;51.728;5.248;2024-03-22T07:01:27;21.20;;;12.70;;
78891;SDS011;68368;51.728;5.248;2024-03-22T07:03:32;24.10;;;15.10;;
78891;SDS011;68368;51.728;5.248;2024-03-22T07:05:36;24.60;;;13.90;;
78891;SDS011;68368;51.728;5.248;2024-03-22T07:07:41;21.90;;;13.50;;
78891;SDS011;68368;51.728;5.248;2024-03-22T07:09:45;23.00;;;13.40;;
78891;SDS011;68368;51.728;5.248;2024-03-22T07:11:49;22.10;;;13.80;;
78891;SDS011;68368;51.728;5.248;2024-03-22T07:13:54;22.40;;;13.20;;
78891;SDS011;68368;51.728;5.248;2024-03-22T07:15:58;19.50;;;12.10;;
78891;SDS011;68368;51.728;5.248;2024-03-22T07:18:03;24.00;;;13.20;;
78891;SDS011;68368;51.728;5.248;2024-03-22T07:20:10;22.80;;;13.90;;
78891;SDS011;68368;51.728;5.248;2024-03-22T07:22:14;22.30;;;13.20;;
78891;SDS011;68368;51.728;5.248;2024-03-22T07:24:19;23.40;;;14.60;;
78891;SDS011;68368;51.728;5.248;2024-03-22T07:26:23;21.90;;;13.20;;
78891;SDS011;68368;51.728;5.248;2024-03-22T07:28:28;21.30;;;13.70;;
78891;SDS011;68368;51.728;5.248;2024-03-22T07:30:32;20.70;;;13.80;;
78891;SDS011;68368;51.728;5.248;2024-03-22T07:32:36;22.70;;;14.00;;
78891;SDS011;68368;51.728;5.248;2024-03-22T07:34:41;22.30;;;13.30;;
78891;SDS011;68368;51.728;5.248;2024-03-22T07:36:48;20.40;;;13.00;;
78891;SDS011;68368;51.728;5.248;2024-03-22T07:38:52;23.40;;;14.70;;
78891;SDS011;68368;51.728;5.248;2024-03-22T07:40:57;22.70;;;13.50;;
78891;SDS011;68368;51.728;5.248;2024-03-22T07:43:01;21.60;;;13.00;;
78891;SDS011;68368;51.728;5.248;2024-03-22T07:45:07;20.30;;;12.80;;
78891;SDS011;68368;51.728;5.248;2024-03-22T07:47:12;18.90;;;12.10;;
78891;SDS011;68368;51.728;5.248;2024-03-22T07:49:16;22.50;;;13.30;;
78891;SDS011;68368;51.728;5.248;2024-03-22T07:51:21;20.60;;;13.20;;
78891;SDS011;68368;51.728;5.248;2024-03-22T07:53:25;21.90;;;13.70;;
78891;SDS011;68368;51.728;5.248;2024-03-22T07:55:30;20.60;;;12.60;;
78891;SDS011;68368;51.728;5.248;2024-03-22T07:57:34;19.50;;;11.60;;
78891;SDS011;68368;51.728;5.248;2024-03-22T07:59:39;21.10;;;12.80;;
78891;SDS011;68368;51.728;5.248;2024-03-22T08:01:44;18.50;;;11.70;;
78891;SDS011;68368;51.728;5.248;2024-03-22T08:03:49;18.70;;;11.20;;
78891;SDS011;68368;51.728;5.248;2024-03-22T08:05:53;19.20;;;11.50;;
78891;SDS011;68368;51.728;5.248;2024-03-22T08:07:58;19.60;;;10.70;;
78891;SDS011;68368;51.728;5.248;2024-03-22T08:10:02;21.60;;;11.70;;
78891;SDS011;68368;51.728;5.248;2024-03-22T08:12:08;19.70;;;11.60;;
78891;SDS011;68368;51.728;5.248;2024-03-22T08:14:12;19.10;;;10.70;;
78891;SDS011;68368;51.728;5.248;2024-03-22T08:16:17;17.80;;;10.10;;
78891;SDS011;68368;51.728;5.248;2024-03-22T08:18:21;16.70;;;10.20;;
78891;SDS011;68368;51.728;5.248;2024-03-22T08:20:26;18.70;;;10.80;;
78891;SDS011;68368;51.728;5.248;2024-03-22T08:22:30;16.30;;;10.30;;
78891;SDS011;68368;51.728;5.248;2024-03-22T08:24:34;19.50;;;11.90;;
78891;SDS011;68368;51.728;5.248;2024-03-22T08:26:39;19.10;;;11.70;;
78891;SDS011;68368;51.728;5.248;2024-03-22T08:28:45;17.40;;;10.10;;
78891;SDS011;68368;51.728;5.248;2024-03-22T08:30:50;16.50;;;9.60;;
78891;SDS011;68368;51.728;5.248;2024-03-22T08:32:55;18.10;;;10.70;;
78891;SDS011;68368;51.728;5.248;2024-03-22T08:34:59;15.70;;;9.40;;
78891;SDS011;68368;51.728;5.248;2024-03-22T08:37:04;19.20;;;10.80;;
78891;SDS011;68368;51.728;5.248;2024-03-22T08:39:09;19.80;;;11.10;;
78891;SDS011;68368;51.728;5.248;2024-03-22T08:41:13;19.10;;;10.00;;
78891;SDS011;68368;51.728;5.248;2024-03-22T08:43:17;16.40;;;9.60;;
78891;SDS011;68368;51.728;5.248;2024-03-22T08:45:22;17.00;;;9.10;;
78891;SDS011;68368;51.728;5.248;2024-03-22T08:47:26;15.20;;;9.00;;
78891;SDS011;68368;51.728;5.248;2024-03-22T08:49:31;16.10;;;9.80;;
78891;SDS011;68368;51.728;5.248;2024-03-22T08:51:35;16.60;;;9.40;;
78891;SDS011;68368;51.728;5.248;2024-03-22T08:53:40;18.10;;;10.20;;
78891;SDS011;68368;51.728;5.248;2024-03-22T08:55:47;16.00;;;9.60;;
78891;SDS011;68368;51.728;5.248;2024-03-22T08:57:52;17.40;;;10.40;;
78891;SDS011;68368;51.728;5.248;2024-03-22T08:59:56;16.60;;;9.40;;
78891;SDS011;68368;51.728;5.248;2024-03-22T09:02:01;16.50;;;9.00;;
78891;SDS011;68368;51.728;5.248;2024-03-22T09:04:06;17.70;;;10.00;;
78891;SDS011;68368;51.728;5.248;2024-03-22T09:06:10;17.10;;;10.10;;
78891;SDS011;68368;51.728;5.248;2024-03-22T09:08:15;20.60;;;11.40;;
78891;SDS011;68368;51.728;5.248;2024-03-22T09:10:20;19.90;;;10.80;;
78891;SDS011;68368;51.728;5.248;2024-03-22T09:12:25;16.10;;;11.20;;
78891;SDS011;68368;51.728;5.248;2024-03-22T09:14:29;18.30;;;11.00;;
78891;SDS011;68368;51.728;5.248;2024-03-22T09:16:34;17.50;;;10.20;;
78891;SDS011;68368;51.728;5.248;2024-03-22T09:18:38;18.70;;;10.70;;
78891;SDS011;68368;51.728;5.248;2024-03-22T09:20:43;19.70;;;10.50;;
78891;SDS011;68368;51.728;5.248;2024-03-22T09:22:47;18.70;;;10.30;;
78891;SDS011;68368;51.728;5.248;2024-03-22T09:24:51;18.90;;;11.30;;
78891;SDS011;68368;51.728;5.248;2024-03-22T09:26:56;18.00;;;10.70;;
78891;SDS011;68368;51.728;5.248;2024-03-22T09:29:00;18.90;;;10.30;;
78891;SDS011;68368;51.728;5.248;2024-03-22T09:31:08;20.10;;;11.40;;
78891;SDS011;68368;51.728;5.248;2024-03-22T09:33:12;17.80;;;10.10;;
78891;SDS011;68368;51.728;5.248;2024-03-22T09:35:17;21.70;;;11.40;;
78891;SDS011;68368;51.728;5.248;2024-03-22T09:37:22;19.20;;;10.10;;
78891;SDS011;68368;51.728;5.248;2024-03-22T09:39:26;19.50;;;10.60;;
78891;SDS011;68368;51.728;5.248;2024-03-22T09:41:32;20.70;;;12.00;;
78891;SDS011;68368;51.728;5.248;2024-03-22T09:43:41;21.60;;;12.00;;
78891;SDS011;68368;51.728;5.248;2024-03-22T09:45:51;18.10;;;9.70;;
78891;SDS011;68368;51.728;5.248;2024-03-22T09:47:56;19.50;;;11.40;;
78891;SDS011;68368;51.728;5.248;2024-03-22T09:50:02;20.60;;;11.00;;
78891;SDS011;68368;51.728;5.248;2024-03-22T09:52:09;18.00;;;10.00;;
78891;SDS011;68368;51.728;5.248;2024-03-22T09:54:14;19.20;;;11.80;;
78891;SDS011;68368;51.728;5.248;2024-03-22T09:56:19;20.10;;;10.90;;
78891;SDS011;68368;51.728;5.248;2024-03-22T10:00:28;16.50;;;9.50;;
78891;SDS011;68368;51.728;5.248;2024-03-22T10:02:34;18.80;;;10.90;;
78891;SDS011;68368;51.728;5.248;2024-03-22T10:04:39;19.50;;;11.40;;
78891;SDS011;68368;51.728;5.248;2024-03-22T10:06:44;18.70;;;10.60;;
78891;SDS011;68368;51.728;5.248;2024-03-22T10:08:49;17.20;;;9.10;;
78891;SDS011;68368;51.728;5.248;2024-03-22T10:10:54;18.30;;;11.10;;
78891;SDS011;68368;51.728;5.248;2024-03-22T10:12:59;16.40;;;8.70;;
78891;SDS011;68368;51.728;5.248;2024-03-22T10:15:06;20.40;;;11.00;;
78891;SDS011;68368;51.728;5.248;2024-03-22T10:17:11;17.60;;;11.10;;
78891;SDS011;68368;51.728;5.248;2024-03-22T10:19:18;21.10;;;10.90;;
78891;SDS011;68368;51.728;5.248;2024-03-22T10:21:23;20.10;;;11.00;;
78891;SDS011;68368;51.728;5.248;2024-03-22T10:23:27;18.30;;;10.70;;
78891;SDS011;68368;51.728;5.248;2024-03-22T10:25:33;20.70;;;10.30;;
78891;SDS011;68368;51.728;5.248;2024-03-22T10:27:39;18.10;;;11.00;;
78891;SDS011;68368;51.728;5.248;2024-03-22T10:29:44;19.80;;;11.10;;
78891;SDS011;68368;51.728;5.248;2024-03-22T10:31:49;16.90;;;10.90;;
78891;SDS011;68368;51.728;5.248;2024-03-22T10:33:54;12.70;;;7.40;;
78891;SDS011;68368;51.728;5.248;2024-03-22T10:35:59;17.70;;;10.10;;
78891;SDS011;68368;51.728;5.248;2024-03-22T10:38:04;21.70;;;10.40;;
78891;SDS011;68368;51.728;5.248;2024-03-22T10:40:12;17.70;;;10.40;;
78891;SDS011;68368;51.728;5.248;2024-03-22T10:42:16;13.90;;;8.70;;
78891;SDS011;68368;51.728;5.248;2024-03-22T10:44:21;17.00;;;9.50;;
78891;SDS011;68368;51.728;5.248;2024-03-22T10:46:29;15.70;;;9.30;;
78891;SDS011;68368;51.728;5.248;2024-03-22T10:48:35;16.10;;;8.80;;
78891;SDS011;68368;51.728;5.248;2024-03-22T10:50:41;14.30;;;8.20;;
78891;SDS011;68368;51.728;5.248;2024-03-22T10:52:49;17.10;;;10.50;;
78891;SDS011;68368;51.728;5.248;2024-03-22T10:54:55;15.20;;;9.90;;
78891;SDS011;68368;51.728;5.248;2024-03-22T10:57:01;16.30;;;10.40;;
78891;SDS011;68368;51.728;5.248;2024-03-22T10:59:08;16.90;;;9.50;;
78891;SDS011;68368;51.728;5.248;2024-03-22T11:01:24;16.80;;;9.80;;
78891;SDS011;68368;51.728;5.248;2024-03-22T11:03:29;14.60;;;7.70;;
78891;SDS011;68368;51.728;5.248;2024-03-22T11:05:33;15.20;;;9.30;;
78891;SDS011;68368;51.728;5.248;2024-03-22T11:07:47;13.90;;;8.50;;
78891;SDS011;68368;51.728;5.248;2024-03-22T11:10:03;14.90;;;9.20;;
78891;SDS011;68368;51.728;5.248;2024-03-22T11:12:10;16.80;;;9.60;;
78891;SDS011;68368;51.728;5.248;2024-03-22T11:14:15;16.70;;;9.40;;
78891;SDS011;68368;51.728;5.248;2024-03-22T11:16:20;15.30;;;8.50;;
78891;SDS011;68368;51.728;5.248;2024-03-22T11:18:24;15.30;;;8.90;;
78891;SDS011;68368;51.728;5.248;2024-03-22T11:20:29;13.90;;;7.90;;
78891;SDS011;68368;51.728;5.248;2024-03-22T11:22:34;11.30;;;7.70;;
78891;SDS011;68368;51.728;5.248;2024-03-22T11:24:39;14.00;;;8.60;;
78891;SDS011;68368;51.728;5.248;2024-03-22T11:26:44;13.10;;;8.50;;
78891;SDS011;68368;51.728;5.248;2024-03-22T11:28:49;11.30;;;8.40;;
78891;SDS011;68368;51.728;5.248;2024-03-22T11:30:54;12.10;;;8.10;;
78891;SDS011;68368;51.728;5.248;2024-03-22T11:33:02;14.90;;;7.40;;
78891;SDS011;68368;51.728;5.248;2024-03-22T11:35:10;13.30;;;7.60;;
78891;SDS011;68368;51.728;5.248;2024-03-22T11:37:16;11.80;;;7.40;;
78891;SDS011;68368;51.728;5.248;2024-03-22T11:39:21;12.80;;;7.50;;
78891;SDS011;68368;51.728;5.248;2024-03-22T11:41:27;12.70;;;7.20;;
78891;SDS011;68368;51.728;5.248;2024-03-22T11:43:35;11.70;;;7.20;;
78891;SDS011;68368;51.728;5.248;2024-03-22T11:45:40;11.30;;;7.00;;
78891;SDS011;68368;51.728;5.248;2024-03-22T11:47:45;10.50;;;7.10;;
78891;SDS011;68368;51.728;5.248;2024-03-22T11:49:50;10.30;;;7.30;;
78891;SDS011;68368;51.728;5.248;2024-03-22T11:51:55;10.90;;;7.00;;
78891;SDS011;68368;51.728;5.248;2024-03-22T11:53:59;13.50;;;7.40;;
78891;SDS011;68368;51.728;5.248;2024-03-22T11:56:09;10.40;;;6.70;;
78891;SDS011;68368;51.728;5.248;2024-03-22T11:58:13;10.50;;;7.40;;
78891;SDS011;68368;51.728;5.248;2024-03-22T12:00:19;11.90;;;7.00;;
78891;SDS011;68368;51.728;5.248;2024-03-22T12:02:24;9.00;;;6.00;;
78891;SDS011;68368;51.728;5.248;2024-03-22T12:04:29;9.50;;;6.20;;
78891;SDS011;68368;51.728;5.248;2024-03-22T12:06:35;9.10;;;6.70;;
78891;SDS011;68368;51.728;5.248;2024-03-22T12:08:40;10.10;;;7.20;;
78891;SDS011;68368;51.728;5.248;2024-03-22T12:10:45;11.20;;;7.10;;
78891;SDS011;68368;51.728;5.248;2024-03-22T12:12:50;7.90;;;5.80;;
78891;SDS011;68368;51.728;5.248;2024-03-22T12:14:55;9.50;;;7.20;;